Waltonville, Illinois
Current Conditions -  °F | °C
As of 6:15 AM on Wednesday 28 Jan 2015 (Local Time) from KMVN Reporting Station
Clear Clear  
Wind Chill: 25°   Ceiling: Unl
Heat Index: 25°   Visibility: 8mi
Dew Point: 19°   Wind: 3mph
Humidity: 80%   Direction: 60°ENE
Pressure: 30.3"   Gusts: NA
Location:  38.21°N, 89.04°W
Report Text: KMVN 281215Z AUTO 06003KT 8SM CLR M04/M07 A3030 RMK AO1
Loading
Personal Weather Stations






























Interactive Weather Map New forecast layout! Learn more

10-Day Weather Forecast

Advertisements
Track Severe Weather on mobile